Time;durP1;ratioP1;P1;durP2;ratioP2;P2;SDS_P1;SDS_P2;PMS_P1;PMS_P2;Temp;Humidity;BMP_temperature;BMP_pressure;BME280_temperature;BME280_humidity;BME280_pressure;Samples;Min_cycle;Max_cycle;Signal;HPM_P1;HPM_P2
2023/12/31 00:00:08;;;;;;;;;;;;;;;;;;5074337;28;1905;-57
2023/12/31 00:02:34;;;;;;;;;;;;;;;;;;5074144;28;923;-57
2023/12/31 00:05:00;;;;;;;;;;;;;;;;;;5073504;28;1186;-57
2023/12/31 00:07:26;;;;;;;;;;;;;;;;;;5074438;28;903;-56
2023/12/31 00:09:52;;;;;;;;;;;;;;;;;;5072668;28;864;-57
2023/12/31 00:12:17;;;;;;;;;;;;;;;;;;5074040;28;1034;-57
2023/12/31 00:14:42;;;;;;;;;;;;;;;;;;5074142;28;1003;-57
2023/12/31 00:17:08;;;;;;;;;;;;;;;;;;5074071;28;833;-57
2023/12/31 00:19:33;;;;;;;;;;;;;;;;;;5074192;28;1971;-58
2023/12/31 00:21:58;;;;;;;;;;;;;;;;;;5072740;28;1211;-58
2023/12/31 00:24:24;;;;;;;;;;;;;;;;;;5085671;28;1135;-59
2023/12/31 00:26:49;;;;;;;;;;;;;;;;;;5066442;28;1092;-57
2023/12/31 00:29:14;;;;;;;;;;;;;;;;;;5070298;28;1160;-57
2023/12/31 00:31:39;;;;;;;;;;;;;;;;;;5071969;28;862;-58
2023/12/31 00:34:05;;;;;;;;;;;;;;;;;;5071107;28;1140;-57
2023/12/31 00:36:31;;;;;;;;;;;;;;;;;;5073761;28;1219;-56
2023/12/31 00:38:56;;;;;;;;;;;;;;;;;;5069438;28;1906;-57
2023/12/31 00:41:21;;;;;;;;;;;;;;;;;;5072519;28;1175;-58
2023/12/31 00:43:47;;;;;;;;;;;;;;;;;;5072441;28;1008;-58
2023/12/31 00:46:15;;;;;;;;;;;;;;;;;;5072603;28;928;-58
2023/12/31 00:48:40;;;;;;;;;;;;;;;;;;5073850;28;873;-58
2023/12/31 00:51:05;;;;;;;;;;;;;;;;;;5072870;28;937;-58
2023/12/31 00:53:32;;;;;;;;;;;;;;;;;;5072542;28;884;-58
2023/12/31 00:55:57;;;;;;;;;;;;;;;;;;5073471;28;908;-58
2023/12/31 00:58:22;;;;;;;;;;;;;;;;;;5073709;28;1914;-58
2023/12/31 01:00:48;;;;;;;;;;;;;;;;;;5073144;28;914;-58
2023/12/31 01:03:13;;;;;;;;;;;;;;;;;;5073296;28;999;-58
2023/12/31 01:05:38;;;;;;;;;;;;;;;;;;5073734;28;1069;-58
2023/12/31 01:08:04;;;;;;;;;;;;;;;;;;5073619;28;943;-58
2023/12/31 01:10:29;;;;;;;;;;;;;;;;;;5073923;28;880;-58
2023/12/31 01:12:55;;;;;;;;;;;;;;;;;;5073515;28;871;-58
2023/12/31 01:15:22;;;;;;;;;;;;;;;;;;5073488;28;891;-58
2023/12/31 01:17:47;;;;;;;;;;;;;;;;;;5073594;28;902;-58
2023/12/31 01:20:14;;;;;;;;;;;;;;;;;;5072263;28;1960;-58
2023/12/31 01:22:39;;;;;;;;;;;;;;;;;;5073588;28;962;-57
2023/12/31 01:25:05;;;;;;;;;;;;;;;;;;5072444;28;836;-57
2023/12/31 01:27:30;;;;;;;;;;;;;;;;;;5071882;28;895;-57
2023/12/31 01:29:55;;;;;;;;;;;;;;;;;;5073349;28;946;-57
2023/12/31 01:32:21;;;;;;;;;;;;;;;;;;5073560;28;1217;-57
2023/12/31 01:34:46;;;;;;;;;;;;;;;;;;5073155;28;904;-57
2023/12/31 01:37:11;;;;;;;;;;;;;;;;;;5076222;28;892;-56
2023/12/31 01:39:36;;;;;;;;;;;;;;;;;;5077172;28;1971;-56
2023/12/31 01:42:02;;;;;;;;;;;;;;;;;;5077117;28;873;-56
2023/12/31 01:44:28;;;;;;;;;;;;;;;;;;5077435;28;895;-57
2023/12/31 01:46:53;;;;;;;;;;;;;;;;;;5077028;28;1167;-57
2023/12/31 01:49:19;;;;;;;;;;;;;;;;;;5077373;28;836;-57
2023/12/31 01:51:44;;;;;;;;;;;;;;;;;;5077302;28;1085;-57
2023/12/31 01:54:10;;;;;;;;;;;;;;;;;;5076818;28;1034;-57
2023/12/31 01:56:39;;;;;;;;;;;;;;;;;;5077357;28;832;-57
2023/12/31 01:59:06;;;;;;;;;;;;;;;;;;5075457;28;1926;-58
2023/12/31 02:01:32;;;;;;;;;;;;;;;;;;5076722;28;935;-58
2023/12/31 02:03:57;;;;;;;;;;;;;;;;;;5076954;28;872;-57
2023/12/31 02:06:23;;;;;;;;;;;;;;;;;;5076802;28;828;-58
2023/12/31 02:08:48;;;;;;;;;;;;;;;;;;5076868;28;901;-57
2023/12/31 02:11:14;;;;;;;;;;;;;;;;;;5077002;28;920;-58
2023/12/31 02:13:39;;;;;;;;;;;;;;;;;;5076829;28;1006;-57
2023/12/31 02:16:11;;;;;;;;;;;;;;;;;;5076376;28;999;-58
2023/12/31 02:18:37;;;;;;;;;;;;;;;;;;5076634;28;1925;-58
2023/12/31 02:21:02;;;;;;;;;;;;;;;;;;5076056;28;910;-57
2023/12/31 02:23:27;;;;;;;;;;;;;;;;;;5076521;28;831;-58
2023/12/31 02:26:04;;;;;;;;;;;;;;;;;;5076337;28;1069;-58
2023/12/31 02:28:29;;;;;;;;;;;;;;;;;;5074646;28;1432;-58
2023/12/31 02:30:54;;;;;;;;;;;;;;;;;;5076252;28;930;-58
2023/12/31 02:33:20;;;;;;;;;;;;;;;;;;5076005;28;846;-57
2023/12/31 02:35:45;;;;;;;;;;;;;;;;;;5075975;28;950;-58
2023/12/31 02:38:10;;;;;;;;;;;;;;;;;;5076040;28;1902;-56
2023/12/31 02:40:35;;;;;;;;;;;;;;;;;;5076355;28;990;-57
2023/12/31 02:43:01;;;;;;;;;;;;;;;;;;5076372;28;907;-56
2023/12/31 02:45:26;;;;;;;;;;;;;;;;;;5076164;28;907;-58
2023/12/31 02:47:51;;;;;;;;;;;;;;;;;;5074904;28;880;-59
2023/12/31 02:50:17;;;;;;;;;;;;;;;;;;5076127;28;901;-58
2023/12/31 02:52:42;;;;;;;;;;;;;;;;;;5075886;28;1002;-57
2023/12/31 02:55:07;;;;;;;;;;;;;;;;;;5075701;28;1016;-57
2023/12/31 02:57:34;;;;;;;;;;;;;;;;;;5075630;28;986;-57
2023/12/31 02:59:59;;;;;;;;;;;;;;;;;;5075522;28;1906;-57
2023/12/31 03:02:24;;;;;;;;;;;;;;;;;;5075328;28;990;-57
2023/12/31 03:04:50;;;;;;;;;;;;;;;;;;5075397;28;954;-57
2023/12/31 03:07:15;;;;;;;;;;;;;;;;;;5074729;28;1124;-57
2023/12/31 03:09:41;;;;;;;;;;;;;;;;;;5081396;28;1167;-57
2023/12/31 03:12:06;;;;;;;;;;;;;;;;;;5071855;28;1182;-57
2023/12/31 03:14:31;;;;;;;;;;;;;;;;;;5086770;28;1238;-57
2023/12/31 03:16:57;;;;;;;;;;;;;;;;;;5078738;28;1210;-57
2023/12/31 03:19:23;;;;;;;;;;;;;;;;;;5079373;28;1909;-57
2023/12/31 03:21:48;;;;;;;;;;;;;;;;;;5079198;28;1163;-57
2023/12/31 03:24:14;;;;;;;;;;;;;;;;;;5086131;28;1191;-57
2023/12/31 03:26:39;;;;;;;;;;;;;;;;;;5088465;28;1199;-57
2023/12/31 03:29:04;;;;;;;;;;;;;;;;;;5091645;28;1167;-57
2023/12/31 03:31:30;;;;;;;;;;;;;;;;;;5094874;28;1107;-58
2023/12/31 03:33:55;;;;;;;;;;;;;;;;;;5095177;28;931;-57
2023/12/31 03:36:21;;;;;;;;;;;;;;;;;;5095244;28;875;-56
2023/12/31 03:38:48;;;;;;;;;;;;;;;;;;5094644;28;1906;-57
2023/12/31 03:41:13;;;;;;;;;;;;;;;;;;5094353;28;1238;-56
2023/12/31 03:43:38;;;;;;;;;;;;;;;;;;5090699;28;1122;-57
2023/12/31 03:46:04;;;;;;;;;;;;;;;;;;5093264;28;816;-57
2023/12/31 03:48:29;;;;;;;;;;;;;;;;;;5091993;28;884;-57
2023/12/31 03:50:55;;;;;;;;;;;;;;;;;;5092925;28;954;-57
2023/12/31 03:53:20;;;;;;;;;;;;;;;;;;5092948;28;899;-57
2023/12/31 03:55:46;;;;;;;;;;;;;;;;;;5092734;28;899;-57
2023/12/31 03:58:11;;;;;;;;;;;;;;;;;;5093212;28;2005;-56
2023/12/31 04:00:36;;;;;;;;;;;;;;;;;;5095093;28;808;-56
2023/12/31 04:03:02;;;;;;;;;;;;;;;;;;5094196;28;1058;-56
2023/12/31 04:05:28;;;;;;;;;;;;;;;;;;5094565;28;813;-56
2023/12/31 04:07:53;;;;;;;;;;;;;;;;;;5094468;28;1158;-56
2023/12/31 04:10:18;;;;;;;;;;;;;;;;;;5094568;28;816;-57
2023/12/31 04:12:44;;;;;;;;;;;;;;;;;;5094480;28;848;-57
2023/12/31 04:15:09;;;;;;;;;;;;;;;;;;5094461;28;1049;-57
2023/12/31 04:17:34;;;;;;;;;;;;;;;;;;5094247;28;986;-57
2023/12/31 04:20:00;;;;;;;;;;;;;;;;;;5094332;28;1977;-57
2023/12/31 04:22:25;;;;;;;;;;;;;;;;;;5094311;28;902;-58
2023/12/31 04:24:50;;;;;;;;;;;;;;;;;;5094529;28;836;-57
2023/12/31 04:27:16;;;;;;;;;;;;;;;;;;5093955;28;1065;-57
2023/12/31 04:29:41;;;;;;;;;;;;;;;;;;5093698;28;888;-57
2023/12/31 04:32:06;;;;;;;;;;;;;;;;;;5094270;28;840;-57
2023/12/31 04:34:32;;;;;;;;;;;;;;;;;;5093897;28;903;-57
2023/12/31 04:36:57;;;;;;;;;;;;;;;;;;5094659;28;837;-57
2023/12/31 04:39:24;;;;;;;;;;;;;;;;;;5093584;28;1926;-58
2023/12/31 04:41:49;;;;;;;;;;;;;;;;;;5094073;28;840;-58
2023/12/31 04:44:14;;;;;;;;;;;;;;;;;;5094178;28;840;-58
2023/12/31 04:46:40;;;;;;;;;;;;;;;;;;5093712;28;907;-58
2023/12/31 04:49:05;;;;;;;;;;;;;;;;;;5093903;28;954;-58
2023/12/31 04:51:30;;;;;;;;;;;;;;;;;;5093955;28;801;-58
2023/12/31 04:53:56;;;;;;;;;;;;;;;;;;5092256;28;1793;-58
2023/12/31 04:56:22;;;;;;;;;;;;;;;;;;5093383;28;840;-58
2023/12/31 04:58:55;;;;;;;;;;;;;;;;;;5094074;28;1980;-56
2023/12/31 05:01:20;;;;;;;;;;;;;;;;;;5093620;28;966;-57
2023/12/31 05:03:46;;;;;;;;;;;;;;;;;;5092737;28;939;-57
2023/12/31 05:06:15;;;;;;;;;;;;;;;;;;5090513;28;844;-57
2023/12/31 05:08:44;;;;;;;;;;;;;;;;;;5091681;28;904;-57
2023/12/31 05:11:10;;;;;;;;;;;;;;;;;;5093080;28;919;-57
2023/12/31 05:13:35;;;;;;;;;;;;;;;;;;5095839;28;867;-57
2023/12/31 05:16:01;;;;;;;;;;;;;;;;;;5096270;28;808;-57
2023/12/31 05:18:27;;;;;;;;;;;;;;;;;;5096677;28;1955;-56
2023/12/31 05:20:52;;;;;;;;;;;;;;;;;;5097508;28;856;-57
2023/12/31 05:23:17;;;;;;;;;;;;;;;;;;5097340;28;856;-57
2023/12/31 05:25:42;;;;;;;;;;;;;;;;;;5097434;28;927;-57
2023/12/31 05:28:08;;;;;;;;;;;;;;;;;;5097714;28;921;-57
2023/12/31 05:30:33;;;;;;;;;;;;;;;;;;5097439;28;848;-57
2023/12/31 05:32:58;;;;;;;;;;;;;;;;;;5097561;28;875;-57
2023/12/31 05:35:24;;;;;;;;;;;;;;;;;;5097851;28;856;-57
2023/12/31 05:37:49;;;;;;;;;;;;;;;;;;5097864;28;900;-57
2023/12/31 05:40:14;;;;;;;;;;;;;;;;;;5097236;28;1972;-57
2023/12/31 05:42:40;;;;;;;;;;;;;;;;;;5097435;28;907;-57
2023/12/31 05:45:06;;;;;;;;;;;;;;;;;;5097458;28;956;-57
2023/12/31 05:47:31;;;;;;;;;;;;;;;;;;5097479;28;813;-57
2023/12/31 05:49:56;;;;;;;;;;;;;;;;;;5097668;28;915;-57
2023/12/31 05:52:22;;;;;;;;;;;;;;;;;;5095762;28;1317;-57
2023/12/31 05:54:47;;;;;;;;;;;;;;;;;;5097285;28;889;-57
2023/12/31 05:57:13;;;;;;;;;;;;;;;;;;5097412;28;793;-57
2023/12/31 05:59:38;;;;;;;;;;;;;;;;;;5097202;28;1964;-57
2023/12/31 06:02:04;;;;;;;;;;;;;;;;;;5096813;28;937;-57
2023/12/31 06:04:29;;;;;;;;;;;;;;;;;;5095260;28;1372;-57
2023/12/31 06:06:54;;;;;;;;;;;;;;;;;;5096651;28;911;-56
2023/12/31 06:09:19;;;;;;;;;;;;;;;;;;5096243;28;903;-56
2023/12/31 06:11:45;;;;;;;;;;;;;;;;;;5096836;28;935;-57
2023/12/31 06:14:10;;;;;;;;;;;;;;;;;;5096193;28;1046;-56
2023/12/31 06:16:35;;;;;;;;;;;;;;;;;;5096705;28;859;-57
2023/12/31 06:19:00;;;;;;;;;;;;;;;;;;5096290;28;1949;-57
2023/12/31 06:21:26;;;;;;;;;;;;;;;;;;5096550;28;852;-57
2023/12/31 06:23:51;;;;;;;;;;;;;;;;;;5096443;28;1265;-56
2023/12/31 06:26:16;;;;;;;;;;;;;;;;;;5096390;28;895;-57
2023/12/31 06:28:41;;;;;;;;;;;;;;;;;;5096569;28;983;-57
2023/12/31 06:31:07;;;;;;;;;;;;;;;;;;5097055;28;1037;-57
2023/12/31 06:33:32;;;;;;;;;;;;;;;;;;5096408;28;876;-57
2023/12/31 06:35:57;;;;;;;;;;;;;;;;;;5096054;28;836;-57
2023/12/31 06:38:22;;;;;;;;;;;;;;;;;;5096080;28;1902;-57
2023/12/31 06:40:47;;;;;;;;;;;;;;;;;;5096101;28;903;-57
2023/12/31 06:43:13;;;;;;;;;;;;;;;;;;5096323;28;970;-57
2023/12/31 06:45:38;;;;;;;;;;;;;;;;;;5095673;28;860;-57
2023/12/31 06:48:03;;;;;;;;;;;;;;;;;;5096083;28;951;-57
2023/12/31 06:50:29;;;;;;;;;;;;;;;;;;5095858;28;816;-57
2023/12/31 06:52:54;;;;;;;;;;;;;;;;;;5095825;28;920;-58
2023/12/31 06:55:19;;;;;;;;;;;;;;;;;;5096179;28;1026;-57
2023/12/31 06:57:47;;;;;;;;;;;;;;;;;;5095876;28;937;-57
2023/12/31 07:00:12;;;;;;;;;;;;;;;;;;5096166;28;1887;-58
2023/12/31 07:02:38;;;;;;;;;;;;;;;;;;5096204;28;903;-58
2023/12/31 07:05:04;;;;;;;;;;;;;;;;;;5095469;28;836;-56
2023/12/31 07:07:29;;;;;;;;;;;;;;;;;;5094191;28;998;-57
2023/12/31 07:09:54;;;;;;;;;;;;;;;;;;5092569;28;908;-57
2023/12/31 07:12:19;;;;;;;;;;;;;;;;;;5093823;28;1144;-57
2023/12/31 07:14:45;;;;;;;;;;;;;;;;;;5093649;28;990;-57
2023/12/31 07:17:10;;;;;;;;;;;;;;;;;;5093916;28;1046;-57
2023/12/31 07:19:35;;;;;;;;;;;;;;;;;;5092865;28;1918;-58
2023/12/31 07:22:01;;;;;;;;;;;;;;;;;;5095747;28;863;-57
2023/12/31 07:24:26;;;;;;;;;;;;;;;;;;5094141;28;1539;-57
2023/12/31 07:26:52;;;;;;;;;;;;;;;;;;5095311;28;833;-57
2023/12/31 07:29:17;;;;;;;;;;;;;;;;;;5095124;28;927;-57
2023/12/31 07:31:42;;;;;;;;;;;;;;;;;;5095423;28;841;-57
2023/12/31 07:34:08;;;;;;;;;;;;;;;;;;5094767;28;873;-56
2023/12/31 07:36:33;;;;;;;;;;;;;;;;;;5095216;28;1248;-58
2023/12/31 07:38:59;;;;;;;;;;;;;;;;;;5094683;28;1964;-57
2023/12/31 07:41:25;;;;;;;;;;;;;;;;;;5095053;28;928;-57
2023/12/31 07:43:50;;;;;;;;;;;;;;;;;;5095022;28;899;-58
2023/12/31 07:46:15;;;;;;;;;;;;;;;;;;5094988;28;895;-58
2023/12/31 07:48:41;;;;;;;;;;;;;;;;;;5094767;28;1668;-58
2023/12/31 07:51:08;;;;;;;;;;;;;;;;;;5094591;28;1041;-57
2023/12/31 07:53:34;;;;;;;;;;;;;;;;;;5094418;28;934;-58
2023/12/31 07:55:59;;;;;;;;;;;;;;;;;;5093616;28;975;-58
2023/12/31 07:58:27;;;;;;;;;;;;;;;;;;5094505;28;1957;-58
2023/12/31 08:00:52;;;;;;;;;;;;;;;;;;5094450;28;864;-58
2023/12/31 08:03:18;;;;;;;;;;;;;;;;;;5093131;28;1184;-58
2023/12/31 08:05:43;;;;;;;;;;;;;;;;;;5092620;28;911;-58
2023/12/31 08:08:11;;;;;;;;;;;;;;;;;;5092846;28;998;-58
2023/12/31 08:10:40;;;;;;;;;;;;;;;;;;5092982;28;856;-59
2023/12/31 08:13:05;;;;;;;;;;;;;;;;;;5091630;28;895;-57
2023/12/31 08:15:30;;;;;;;;;;;;;;;;;;5092477;28;1001;-56
2023/12/31 08:17:56;;;;;;;;;;;;;;;;;;5093219;28;987;-58
2023/12/31 08:20:21;;;;;;;;;;;;;;;;;;5093367;28;1915;-57
2023/12/31 08:22:46;;;;;;;;;;;;;;;;;;5094425;28;900;-57
2023/12/31 08:25:11;;;;;;;;;;;;;;;;;;5094146;28;960;-57
2023/12/31 08:27:37;;;;;;;;;;;;;;;;;;5094223;28;832;-57
2023/12/31 08:30:02;;;;;;;;;;;;;;;;;;5094191;28;955;-57
2023/12/31 08:32:28;;;;;;;;;;;;;;;;;;5094506;28;865;-58
2023/12/31 08:34:54;;;;;;;;;;;;;;;;;;5094730;28;896;-57
2023/12/31 08:37:19;;;;;;;;;;;;;;;;;;5094200;28;832;-57
2023/12/31 08:39:44;;;;;;;;;;;;;;;;;;5094299;28;1894;-57
2023/12/31 08:42:10;;;;;;;;;;;;;;;;;;5094114;28;1014;-58
2023/12/31 08:44:35;;;;;;;;;;;;;;;;;;5094225;28;805;-57
2023/12/31 08:47:00;;;;;;;;;;;;;;;;;;5092726;28;914;-58
2023/12/31 08:49:27;;;;;;;;;;;;;;;;;;5094143;28;1094;-58
2023/12/31 08:51:54;;;;;;;;;;;;;;;;;;5094135;28;904;-58
2023/12/31 08:54:20;;;;;;;;;;;;;;;;;;5094344;28;1014;-57
2023/12/31 08:56:45;;;;;;;;;;;;;;;;;;5093900;28;1239;-58
2023/12/31 08:59:10;;;;;;;;;;;;;;;;;;5093948;28;1901;-60
2023/12/31 09:01:35;;;;;;;;;;;;;;;;;;5094396;28;967;-57
2023/12/31 09:04:01;;;;;;;;;;;;;;;;;;5094422;28;828;-57
2023/12/31 09:06:26;;;;;;;;;;;;;;;;;;5093477;28;844;-57
2023/12/31 09:08:51;;;;;;;;;;;;;;;;;;5091929;28;817;-57
2023/12/31 09:11:17;;;;;;;;;;;;;;;;;;5091775;28;959;-57
2023/12/31 09:13:42;;;;;;;;;;;;;;;;;;5090821;28;848;-57
2023/12/31 09:16:07;;;;;;;;;;;;;;;;;;5091737;28;1043;-58
2023/12/31 09:18:32;;;;;;;;;;;;;;;;;;5091492;28;1953;-58
2023/12/31 09:20:58;;;;;;;;;;;;;;;;;;5092792;28;1050;-58
2023/12/31 09:23:23;;;;;;;;;;;;;;;;;;5093537;28;999;-58
2023/12/31 09:25:48;;;;;;;;;;;;;;;;;;5094298;28;915;-58
2023/12/31 09:28:14;;;;;;;;;;;;;;;;;;5093948;28;881;-57
2023/12/31 09:30:39;;;;;;;;;;;;;;;;;;5092353;28;2605;-58
2023/12/31 09:33:04;;;;;;;;;;;;;;;;;;5093775;28;848;-57
2023/12/31 09:35:29;;;;;;;;;;;;;;;;;;5093468;28;762;-58
2023/12/31 09:37:55;;;;;;;;;;;;;;;;;;5093983;28;879;-57
2023/12/31 09:40:20;;;;;;;;;;;;;;;;;;5093260;28;1893;-57
2023/12/31 09:42:49;;;;;;;;;;;;;;;;;;5093647;28;931;-56
2023/12/31 09:45:19;;;;;;;;;;;;;;;;;;5092276;28;856;-57
2023/12/31 09:47:44;;;;;;;;;;;;;;;;;;5093192;28;896;-56
2023/12/31 09:50:10;;;;;;;;;;;;;;;;;;5093311;28;952;-56
2023/12/31 09:52:36;;;;;;;;;;;;;;;;;;5094164;28;810;-56
2023/12/31 09:55:02;;;;;;;;;;;;;;;;;;5093855;28;945;-56
2023/12/31 09:57:30;;;;;;;;;;;;;;;;;;5095421;28;879;-56
2023/12/31 09:59:55;;;;;;;;;;;;;;;;;;5097030;28;1898;-56
2023/12/31 10:02:24;;;;;;;;;;;;;;;;;;5097215;28;897;-57
2023/12/31 10:04:50;;;;;;;;;;;;;;;;;;5096574;28;891;-57
2023/12/31 10:07:15;;;;;;;;;;;;;;;;;;5097009;28;877;-56
2023/12/31 10:09:41;;;;;;;;;;;;;;;;;;5095290;28;870;-57
2023/12/31 10:12:06;;;;;;;;;;;;;;;;;;5095320;28;844;-57
2023/12/31 10:14:31;;;;;;;;;;;;;;;;;;5094832;28;832;-56
2023/12/31 10:16:56;;;;;;;;;;;;;;;;;;5094772;28;847;-56
2023/12/31 10:19:22;;;;;;;;;;;;;;;;;;5094909;28;1914;-57
2023/12/31 10:21:48;;;;;;;;;;;;;;;;;;5095118;28;1034;-58
2023/12/31 10:24:13;;;;;;;;;;;;;;;;;;5096718;28;904;-58
2023/12/31 10:26:39;;;;;;;;;;;;;;;;;;5096737;28;900;-56
2023/12/31 10:29:05;;;;;;;;;;;;;;;;;;5097051;28;923;-56
2023/12/31 10:31:30;;;;;;;;;;;;;;;;;;5096304;28;868;-56
2023/12/31 10:33:55;;;;;;;;;;;;;;;;;;5096990;28;832;-56
2023/12/31 10:36:22;;;;;;;;;;;;;;;;;;5096437;28;932;-56
2023/12/31 10:38:49;;;;;;;;;;;;;;;;;;5096355;28;1948;-57
2023/12/31 10:41:20;;;;;;;;;;;;;;;;;;5096026;28;1232;-58
2023/12/31 10:43:46;;;;;;;;;;;;;;;;;;5096054;28;836;-55
2023/12/31 10:46:13;;;;;;;;;;;;;;;;;;5096114;28;917;-56
2023/12/31 10:48:41;;;;;;;;;;;;;;;;;;5095828;28;1756;-56
2023/12/31 10:51:08;;;;;;;;;;;;;;;;;;5096011;28;1000;-56
2023/12/31 10:53:37;;;;;;;;;;;;;;;;;;5095653;28;1085;-56
2023/12/31 10:56:03;;;;;;;;;;;;;;;;;;5096011;28;833;-57
2023/12/31 10:58:28;;;;;;;;;;;;;;;;;;5095922;28;1893;-56
2023/12/31 11:00:54;;;;;;;;;;;;;;;;;;5095920;28;970;-54
2023/12/31 11:03:20;;;;;;;;;;;;;;;;;;5095710;28;1142;-55
2023/12/31 11:05:46;;;;;;;;;;;;;;;;;;5096204;28;1050;-57
2023/12/31 11:08:12;;;;;;;;;;;;;;;;;;5095075;28;905;-57
2023/12/31 11:10:37;;;;;;;;;;;;;;;;;;5094228;28;809;-57
2023/12/31 11:13:03;;;;;;;;;;;;;;;;;;5094406;28;846;-56
2023/12/31 11:15:29;;;;;;;;;;;;;;;;;;5094388;28;840;-57
2023/12/31 11:18:32;;;;;;;;;;;;;;;;;;5093937;28;1019;-57
2023/12/31 11:21:21;;;;;;;;;;;;;;;;;;5071096;28;1132;-56
2023/12/31 11:24:04;;;;;;;;;;;;;;;;;;5093277;28;1072;-56
2023/12/31 11:26:30;;;;;;;;;;;;;;;;;;5096406;28;868;-57
2023/12/31 11:28:55;;;;;;;;;;;;;;;;;;5095605;28;881;-56
2023/12/31 11:31:20;;;;;;;;;;;;;;;;;;5095099;28;932;-57
2023/12/31 11:33:47;;;;;;;;;;;;;;;;;;5095427;28;884;-56
2023/12/31 11:36:13;;;;;;;;;;;;;;;;;;5095355;28;900;-57
2023/12/31 11:38:56;;;;;;;;;;;;;;;;;;5095046;28;1969;-57
2023/12/31 11:41:45;;;;;;;;;;;;;;;;;;5095481;28;899;-57
2023/12/31 11:44:30;;;;;;;;;;;;;;;;;;5091350;28;1292;-56
2023/12/31 11:46:58;;;;;;;;;;;;;;;;;;5094978;28;2061;-57
2023/12/31 11:49:25;;;;;;;;;;;;;;;;;;5094507;28;880;-57
2023/12/31 11:51:56;;;;;;;;;;;;;;;;;;5095509;28;856;-58
2023/12/31 11:54:22;;;;;;;;;;;;;;;;;;5095275;28;1134;-57
2023/12/31 11:56:48;;;;;;;;;;;;;;;;;;5093840;28;901;-57
2023/12/31 11:59:14;;;;;;;;;;;;;;;;;;5092980;28;1918;-56
2023/12/31 12:01:43;;;;;;;;;;;;;;;;;;5093141;28;852;-59
2023/12/31 12:04:09;;;;;;;;;;;;;;;;;;5093374;28;872;-56
2023/12/31 12:06:34;;;;;;;;;;;;;;;;;;5093323;28;840;-55
2023/12/31 12:08:59;;;;;;;;;;;;;;;;;;5093684;28;939;-57
2023/12/31 12:11:26;;;;;;;;;;;;;;;;;;5093060;28;991;-56
2023/12/31 12:13:51;;;;;;;;;;;;;;;;;;5092701;28;872;-57
2023/12/31 12:16:16;;;;;;;;;;;;;;;;;;5092370;28;926;-57
2023/12/31 12:18:42;;;;;;;;;;;;;;;;;;5092177;28;1947;-57
2023/12/31 12:21:07;;;;;;;;;;;;;;;;;;5093159;28;1198;-57
2023/12/31 12:23:33;;;;;;;;;;;;;;;;;;5093069;28;1022;-56
2023/12/31 12:25:58;;;;;;;;;;;;;;;;;;5092927;28;899;-57
2023/12/31 12:28:24;;;;;;;;;;;;;;;;;;5095205;28;1107;-57
2023/12/31 12:30:50;;;;;;;;;;;;;;;;;;5094689;28;938;-58
2023/12/31 12:33:15;;;;;;;;;;;;;;;;;;5094414;28;844;-58
2023/12/31 12:35:44;;;;;;;;;;;;;;;;;;5094497;28;1219;-58
2023/12/31 12:38:10;;;;;;;;;;;;;;;;;;5094551;28;840;-58
2023/12/31 12:40:36;;;;;;;;;;;;;;;;;;5094235;28;1902;-58
2023/12/31 12:43:02;;;;;;;;;;;;;;;;;;5094135;28;922;-58
2023/12/31 12:45:28;;;;;;;;;;;;;;;;;;5094711;28;883;-59
2023/12/31 12:47:58;;;;;;;;;;;;;;;;;;5094834;28;839;-58
2023/12/31 12:50:25;;;;;;;;;;;;;;;;;;5093474;28;808;-57
2023/12/31 12:52:51;;;;;;;;;;;;;;;;;;5092301;28;982;-58
2023/12/31 12:55:16;;;;;;;;;;;;;;;;;;5094178;28;895;-58
2023/12/31 12:57:41;;;;;;;;;;;;;;;;;;5094080;28;991;-58
2023/12/31 13:00:09;;;;;;;;;;;;;;;;;;5093958;28;1890;-58
2023/12/31 13:02:34;;;;;;;;;;;;;;;;;;5094815;28;1130;-58
2023/12/31 13:05:00;;;;;;;;;;;;;;;;;;5094307;28;846;-59
2023/12/31 13:07:25;;;;;;;;;;;;;;;;;;5094523;28;871;-57
2023/12/31 13:09:50;;;;;;;;;;;;;;;;;;5092804;28;848;-57
2023/12/31 13:12:16;;;;;;;;;;;;;;;;;;5093201;28;871;-58
2023/12/31 13:14:41;;;;;;;;;;;;;;;;;;5093983;28;860;-58
2023/12/31 13:17:06;;;;;;;;;;;;;;;;;;5094320;28;912;-57
2023/12/31 13:19:32;;;;;;;;;;;;;;;;;;5093866;28;1929;-57
2023/12/31 13:21:57;;;;;;;;;;;;;;;;;;5094728;28;915;-58
2023/12/31 13:24:22;;;;;;;;;;;;;;;;;;5092847;28;1645;-58
2023/12/31 13:26:48;;;;;;;;;;;;;;;;;;5093613;28;796;-58
2023/12/31 13:29:13;;;;;;;;;;;;;;;;;;5093830;28;829;-57
2023/12/31 13:31:39;;;;;;;;;;;;;;;;;;5094479;28;836;-58
2023/12/31 13:34:06;;;;;;;;;;;;;;;;;;5096752;28;1078;-57
2023/12/31 13:36:31;;;;;;;;;;;;;;;;;;5095846;28;985;-57
2023/12/31 13:38:56;;;;;;;;;;;;;;;;;;5097138;28;1874;-58
2023/12/31 13:41:23;;;;;;;;;;;;;;;;;;5097486;28;879;-58
2023/12/31 13:43:49;;;;;;;;;;;;;;;;;;5097168;28;880;-58
2023/12/31 13:46:14;;;;;;;;;;;;;;;;;;5097266;28;876;-58
2023/12/31 13:48:39;;;;;;;;;;;;;;;;;;5097306;28;987;-58
2023/12/31 13:51:05;;;;;;;;;;;;;;;;;;5097561;28;994;-58
2023/12/31 13:53:31;;;;;;;;;;;;;;;;;;5096986;28;929;-58
2023/12/31 13:55:56;;;;;;;;;;;;;;;;;;5097402;28;817;-57
2023/12/31 13:58:21;;;;;;;;;;;;;;;;;;5097091;28;1890;-58
2023/12/31 14:00:50;;;;;;;;;;;;;;;;;;5097211;28;1112;-57
2023/12/31 14:03:16;;;;;;;;;;;;;;;;;;5096379;28;975;-57
2023/12/31 14:05:41;;;;;;;;;;;;;;;;;;5096792;28;867;-57
2023/12/31 14:08:06;;;;;;;;;;;;;;;;;;5097558;28;919;-57
2023/12/31 14:10:32;;;;;;;;;;;;;;;;;;5096766;28;828;-58
2023/12/31 14:12:57;;;;;;;;;;;;;;;;;;5095632;28;937;-58
2023/12/31 14:15:22;;;;;;;;;;;;;;;;;;5094902;28;852;-58
2023/12/31 14:17:48;;;;;;;;;;;;;;;;;;5095310;28;932;-58
2023/12/31 14:20:13;;;;;;;;;;;;;;;;;;5094766;28;1910;-57
2023/12/31 14:22:40;;;;;;;;;;;;;;;;;;5095413;28;922;-57
2023/12/31 14:25:05;;;;;;;;;;;;;;;;;;5094949;28;915;-57
2023/12/31 14:27:31;;;;;;;;;;;;;;;;;;5095318;28;832;-57
2023/12/31 14:29:56;;;;;;;;;;;;;;;;;;5096561;28;891;-58
2023/12/31 14:32:21;;;;;;;;;;;;;;;;;;5096782;28;884;-58
2023/12/31 14:34:47;;;;;;;;;;;;;;;;;;5096666;28;1026;-58
2023/12/31 14:37:12;;;;;;;;;;;;;;;;;;5097034;28;911;-58
2023/12/31 14:39:37;;;;;;;;;;;;;;;;;;5096911;28;1921;-57
2023/12/31 14:42:03;;;;;;;;;;;;;;;;;;5096713;28;875;-57
2023/12/31 14:44:29;;;;;;;;;;;;;;;;;;5096502;28;911;-57
2023/12/31 14:46:54;;;;;;;;;;;;;;;;;;5096710;28;912;-57
2023/12/31 14:49:20;;;;;;;;;;;;;;;;;;5096992;28;804;-57
2023/12/31 14:51:45;;;;;;;;;;;;;;;;;;5096840;28;1011;-56
2023/12/31 14:54:10;;;;;;;;;;;;;;;;;;5097015;28;989;-56
2023/12/31 14:56:37;;;;;;;;;;;;;;;;;;5096260;28;936;-57
2023/12/31 14:59:02;;;;;;;;;;;;;;;;;;5096094;28;1971;-57
2023/12/31 15:01:28;;;;;;;;;;;;;;;;;;5095877;28;994;-57
2023/12/31 15:03:54;;;;;;;;;;;;;;;;;;5096461;28;862;-57
2023/12/31 15:06:20;;;;;;;;;;;;;;;;;;5095192;28;967;-57
2023/12/31 15:08:49;;;;;;;;;;;;;;;;;;5096095;28;865;-57
2023/12/31 15:11:14;;;;;;;;;;;;;;;;;;5096279;28;915;-58
2023/12/31 15:13:40;;;;;;;;;;;;;;;;;;5095387;28;832;-57
2023/12/31 15:16:05;;;;;;;;;;;;;;;;;;5094617;28;895;-57
2023/12/31 15:18:30;;;;;;;;;;;;;;;;;;5094055;28;1894;-58
2023/12/31 15:20:56;;;;;;;;;;;;;;;;;;5093978;28;896;-59
2023/12/31 15:23:23;;;;;;;;;;;;;;;;;;5094212;28;1219;-57
2023/12/31 15:25:50;;;;;;;;;;;;;;;;;;5093792;28;838;-58
2023/12/31 15:28:16;;;;;;;;;;;;;;;;;;5094384;28;875;-57
2023/12/31 15:30:41;;;;;;;;;;;;;;;;;;5095405;28;1034;-57
2023/12/31 15:33:08;;;;;;;;;;;;;;;;;;5095929;28;931;-58
2023/12/31 15:35:33;;;;;;;;;;;;;;;;;;5094886;28;896;-58
2023/12/31 15:38:01;;;;;;;;;;;;;;;;;;5095492;28;968;-57
2023/12/31 15:40:26;;;;;;;;;;;;;;;;;;5094702;28;1951;-57
2023/12/31 15:42:52;;;;;;;;;;;;;;;;;;5095176;28;887;-56
2023/12/31 15:45:17;;;;;;;;;;;;;;;;;;5095157;28;900;-57
2023/12/31 15:47:42;;;;;;;;;;;;;;;;;;5094903;28;893;-57
2023/12/31 15:50:08;;;;;;;;;;;;;;;;;;5095483;28;942;-57
2023/12/31 15:52:34;;;;;;;;;;;;;;;;;;5094887;28;935;-56
2023/12/31 15:54:59;;;;;;;;;;;;;;;;;;5094633;28;945;-56
2023/12/31 15:57:24;;;;;;;;;;;;;;;;;;5095069;28;868;-56
2023/12/31 15:59:50;;;;;;;;;;;;;;;;;;5093492;28;1966;-57
2023/12/31 16:02:19;;;;;;;;;;;;;;;;;;5094558;28;880;-57
2023/12/31 16:04:45;;;;;;;;;;;;;;;;;;5095031;28;883;-57
2023/12/31 16:07:11;;;;;;;;;;;;;;;;;;5094769;28;808;-57
2023/12/31 16:09:36;;;;;;;;;;;;;;;;;;5095016;28;1014;-57
2023/12/31 16:12:02;;;;;;;;;;;;;;;;;;5094924;28;938;-57
2023/12/31 16:14:28;;;;;;;;;;;;;;;;;;5094155;28;1669;-57
2023/12/31 16:16:53;;;;;;;;;;;;;;;;;;5092864;28;978;-58
2023/12/31 16:19:18;;;;;;;;;;;;;;;;;;5093308;28;1973;-57
2023/12/31 16:21:44;;;;;;;;;;;;;;;;;;5092889;28;961;-58
2023/12/31 16:24:09;;;;;;;;;;;;;;;;;;5092322;28;915;-58
2023/12/31 16:26:34;;;;;;;;;;;;;;;;;;5092148;28;889;-57
2023/12/31 16:29:00;;;;;;;;;;;;;;;;;;5093072;28;895;-57
2023/12/31 16:31:28;;;;;;;;;;;;;;;;;;5091700;28;1262;-57
2023/12/31 16:33:53;;;;;;;;;;;;;;;;;;5094938;28;1162;-56
2023/12/31 16:36:18;;;;;;;;;;;;;;;;;;5088972;28;1147;-58
2023/12/31 16:38:43;;;;;;;;;;;;;;;;;;5077165;28;1949;-58
2023/12/31 16:41:09;;;;;;;;;;;;;;;;;;5073856;28;1227;-58
2023/12/31 16:43:37;;;;;;;;;;;;;;;;;;5074727;28;896;-57
2023/12/31 16:46:02;;;;;;;;;;;;;;;;;;5074121;28;900;-57
2023/12/31 16:48:28;;;;;;;;;;;;;;;;;;5074067;28;841;-57
2023/12/31 16:50:53;;;;;;;;;;;;;;;;;;5074344;28;951;-58
2023/12/31 16:53:18;;;;;;;;;;;;;;;;;;5073988;28;870;-57
2023/12/31 16:55:43;;;;;;;;;;;;;;;;;;5073906;28;840;-58
2023/12/31 16:58:09;;;;;;;;;;;;;;;;;;5073902;28;822;-57
2023/12/31 17:00:34;;;;;;;;;;;;;;;;;;5072886;28;1965;-59
2023/12/31 17:03:00;;;;;;;;;;;;;;;;;;5073556;28;832;-58
2023/12/31 17:05:26;;;;;;;;;;;;;;;;;;5073837;28;873;-58